sensor_id;sensor_type;location;lat;lon;timestamp;pressure;altitude;pressure_sealevel;temperature;humidity
66762;BME280;53672;48.176;16.338;2023-12-14T00:00:58;97951.53;;;6.11;91.34
66762;BME280;53672;48.176;16.338;2023-12-14T00:05:58;97965.78;;;6.13;91.37
66762;BME280;53672;48.176;16.338;2023-12-14T00:11:03;97963.72;;;6.15;91.37
66762;BME280;53672;48.176;16.338;2023-12-14T00:16:06;97963.53;;;6.17;91.43
66762;BME280;53672;48.176;16.338;2023-12-14T00:21:07;97978.00;;;6.17;90.53
66762;BME280;53672;48.176;16.338;2023-12-14T00:26:07;97978.00;;;6.17;90.58
66762;BME280;53672;48.176;16.338;2023-12-14T00:31:09;97975.94;;;6.19;90.94
66762;BME280;53672;48.176;16.338;2023-12-14T00:36:10;97985.38;;;6.23;90.76
66762;BME280;53672;48.176;16.338;2023-12-14T00:41:10;97990.19;;;6.21;91.18
66762;BME280;53672;48.176;16.338;2023-12-14T00:46:12;97990.63;;;6.25;90.46
66762;BME280;53672;48.176;16.338;2023-12-14T00:51:12;98009.53;;;6.26;90.67
66762;BME280;53672;48.176;16.338;2023-12-14T00:56:13;98011.19;;;6.27;90.57
66762;BME280;53672;48.176;16.338;2023-12-14T01:01:15;98007.81;;;6.25;90.70
66762;BME280;53672;48.176;16.338;2023-12-14T01:06:15;98023.91;;;6.20;90.71
66762;BME280;53672;48.176;16.338;2023-12-14T01:11:15;98024.56;;;6.22;90.77
66762;BME280;53672;48.176;16.338;2023-12-14T01:16:17;98034.16;;;6.18;91.02
66762;BME280;53672;48.176;16.338;2023-12-14T01:21:18;98032.91;;;5.99;89.72
66762;BME280;53672;48.176;16.338;2023-12-14T01:26:18;98050.13;;;5.85;90.00
66762;BME280;53672;48.176;16.338;2023-12-14T01:31:20;98043.25;;;5.68;89.49
66762;BME280;53672;48.176;16.338;2023-12-14T01:36:20;98052.97;;;5.42;89.01
66762;BME280;53672;48.176;16.338;2023-12-14T01:41:21;98060.38;;;5.33;90.02
66762;BME280;53672;48.176;16.338;2023-12-14T01:46:23;98058.59;;;5.40;89.92
66762;BME280;53672;48.176;16.338;2023-12-14T01:51:23;98065.91;;;5.39;91.28
66762;BME280;53672;48.176;16.338;2023-12-14T01:56:24;98066.31;;;5.36;91.49
66762;BME280;53672;48.176;16.338;2023-12-14T02:01:29;98067.72;;;5.32;91.40
66762;BME280;53672;48.176;16.338;2023-12-14T02:06:33;98070.59;;;5.31;91.86
66762;BME280;53672;48.176;16.338;2023-12-14T02:11:33;98077.56;;;5.33;91.66
66762;BME280;53672;48.176;16.338;2023-12-14T02:16:36;98084.84;;;5.33;92.20
66762;BME280;53672;48.176;16.338;2023-12-14T02:21:36;98090.78;;;5.36;92.02
66762;BME280;53672;48.176;16.338;2023-12-14T02:26:38;98104.94;;;5.47;92.05
66762;BME280;53672;48.176;16.338;2023-12-14T02:31:38;98114.22;;;5.52;92.31
66762;BME280;53672;48.176;16.338;2023-12-14T02:36:39;98118.81;;;5.66;92.35
66762;BME280;53672;48.176;16.338;2023-12-14T02:41:41;98103.03;;;5.76;92.38
66762;BME280;53672;48.176;16.338;2023-12-14T02:46:41;98116.53;;;5.84;92.44
66762;BME280;53672;48.176;16.338;2023-12-14T02:51:41;98125.00;;;5.89;92.34
66762;BME280;53672;48.176;16.338;2023-12-14T02:56:43;98130.38;;;6.04;92.20
66762;BME280;53672;48.176;16.338;2023-12-14T03:01:44;98131.22;;;6.04;92.16
66762;BME280;53672;48.176;16.338;2023-12-14T03:06:44;98151.69;;;6.15;91.84
66762;BME280;53672;48.176;16.338;2023-12-14T03:11:46;98155.72;;;6.19;91.72
66762;BME280;53672;48.176;16.338;2023-12-14T03:16:46;98148.84;;;6.23;91.15
66762;BME280;53672;48.176;16.338;2023-12-14T03:21:47;98152.22;;;6.25;90.75
66762;BME280;53672;48.176;16.338;2023-12-14T03:26:48;98165.19;;;6.23;90.45
66762;BME280;53672;48.176;16.338;2023-12-14T03:31:49;98165.56;;;6.20;90.57
66762;BME280;53672;48.176;16.338;2023-12-14T03:36:50;98168.28;;;6.20;90.85
66762;BME280;53672;48.176;16.338;2023-12-14T03:41:51;98179.84;;;6.22;90.67
66762;BME280;53672;48.176;16.338;2023-12-14T03:46:52;98172.72;;;6.21;90.95
66762;BME280;53672;48.176;16.338;2023-12-14T03:51:52;98178.19;;;6.21;91.05
66762;BME280;53672;48.176;16.338;2023-12-14T03:56:54;98192.44;;;6.23;91.12
66762;BME280;53672;48.176;16.338;2023-12-14T04:01:54;98194.16;;;6.24;91.25
66762;BME280;53672;48.176;16.338;2023-12-14T04:06:55;98194.97;;;6.25;91.27
66762;BME280;53672;48.176;16.338;2023-12-14T04:11:56;98210.50;;;6.24;91.39
66762;BME280;53672;48.176;16.338;2023-12-14T04:16:57;98207.38;;;6.27;91.54
66762;BME280;53672;48.176;16.338;2023-12-14T04:21:57;98222.88;;;6.27;91.23
66762;BME280;53672;48.176;16.338;2023-12-14T04:26:59;98230.03;;;6.28;91.36
66762;BME280;53672;48.176;16.338;2023-12-14T04:32:00;98234.25;;;6.30;90.88
66762;BME280;53672;48.176;16.338;2023-12-14T04:37:00;98238.00;;;6.29;91.06
66762;BME280;53672;48.176;16.338;2023-12-14T04:42:02;98238.41;;;6.26;90.03
66762;BME280;53672;48.176;16.338;2023-12-14T04:47:03;98240.84;;;6.21;90.26
66762;BME280;53672;48.176;16.338;2023-12-14T04:52:04;98253.31;;;6.16;90.05
66762;BME280;53672;48.176;16.338;2023-12-14T04:57:06;98250.44;;;6.17;89.64
66762;BME280;53672;48.176;16.338;2023-12-14T05:02:06;98254.19;;;6.16;90.07
66762;BME280;53672;48.176;16.338;2023-12-14T05:07:07;98263.78;;;6.12;90.44
66762;BME280;53672;48.176;16.338;2023-12-14T05:12:08;98268.94;;;6.07;90.45
66762;BME280;53672;48.176;16.338;2023-12-14T05:17:09;98270.25;;;6.11;90.27
66762;BME280;53672;48.176;16.338;2023-12-14T05:22:09;98279.25;;;6.11;90.22
66762;BME280;53672;48.176;16.338;2023-12-14T05:27:11;98287.22;;;6.13;90.24
66762;BME280;53672;48.176;16.338;2023-12-14T05:32:12;98278.81;;;6.08;90.00
66762;BME280;53672;48.176;16.338;2023-12-14T05:37:12;98285.28;;;6.07;89.50
66762;BME280;53672;48.176;16.338;2023-12-14T05:42:17;98293.81;;;6.04;89.48
66762;BME280;53672;48.176;16.338;2023-12-14T05:47:17;98297.59;;;6.03;89.40
66762;BME280;53672;48.176;16.338;2023-12-14T05:52:18;98295.50;;;6.05;88.96
66762;BME280;53672;48.176;16.338;2023-12-14T05:57:19;98301.31;;;6.02;88.87
66762;BME280;53672;48.176;16.338;2023-12-14T06:02:20;98303.75;;;5.97;88.35
66762;BME280;53672;48.176;16.338;2023-12-14T06:07:20;98311.09;;;5.96;88.09
66762;BME280;53672;48.176;16.338;2023-12-14T06:12:22;98312.78;;;5.97;87.41
66762;BME280;53672;48.176;16.338;2023-12-14T06:17:22;98324.72;;;5.96;86.84
66762;BME280;53672;48.176;16.338;2023-12-14T06:22:23;98329.31;;;5.96;86.37
66762;BME280;53672;48.176;16.338;2023-12-14T06:27:25;98333.47;;;5.92;86.59
66762;BME280;53672;48.176;16.338;2023-12-14T06:32:25;98353.19;;;5.94;86.48
66762;BME280;53672;48.176;16.338;2023-12-14T06:37:25;98366.59;;;5.95;86.13
66762;BME280;53672;48.176;16.338;2023-12-14T06:42:28;98370.84;;;5.98;86.26
66762;BME280;53672;48.176;16.338;2023-12-14T06:47:28;98376.19;;;5.91;85.35
66762;BME280;53672;48.176;16.338;2023-12-14T06:52:29;98385.19;;;5.92;85.39
66762;BME280;53672;48.176;16.338;2023-12-14T06:57:30;98387.97;;;5.84;84.75
66762;BME280;53672;48.176;16.338;2023-12-14T07:02:31;98395.41;;;5.90;84.04
66762;BME280;53672;48.176;16.338;2023-12-14T07:07:31;98406.13;;;5.91;84.37
66762;BME280;53672;48.176;16.338;2023-12-14T07:12:33;98420.97;;;5.89;84.48
66762;BME280;53672;48.176;16.338;2023-12-14T07:17:33;98425.84;;;5.93;84.60
66762;BME280;53672;48.176;16.338;2023-12-14T07:22:34;98435.59;;;5.88;84.87
66762;BME280;53672;48.176;16.338;2023-12-14T07:27:36;98446.88;;;5.85;84.45
66762;BME280;53672;48.176;16.338;2023-12-14T07:32:36;98459.09;;;5.89;83.72
66762;BME280;53672;48.176;16.338;2023-12-14T07:37:36;98465.53;;;5.88;83.81
66762;BME280;53672;48.176;16.338;2023-12-14T07:42:38;98466.59;;;5.87;83.54
66762;BME280;53672;48.176;16.338;2023-12-14T07:47:39;98479.50;;;6.30;89.08
66762;BME280;53672;48.176;16.338;2023-12-14T07:52:39;98480.13;;;6.69;80.34
66762;BME280;53672;48.176;16.338;2023-12-14T07:57:41;98497.66;;;6.38;80.18
66762;BME280;53672;48.176;16.338;2023-12-14T08:02:41;98503.38;;;6.28;80.71
66762;BME280;53672;48.176;16.338;2023-12-14T08:07:42;98514.97;;;6.22;81.45
66762;BME280;53672;48.176;16.338;2023-12-14T08:12:44;98525.81;;;6.30;81.06
66762;BME280;53672;48.176;16.338;2023-12-14T08:17:44;98534.06;;;6.22;80.74
66762;BME280;53672;48.176;16.338;2023-12-14T08:22:44;98544.41;;;6.27;80.79
66762;BME280;53672;48.176;16.338;2023-12-14T08:27:46;98554.59;;;6.33;80.56
66762;BME280;53672;48.176;16.338;2023-12-14T08:32:47;98569.84;;;6.42;80.51
66762;BME280;53672;48.176;16.338;2023-12-14T08:37:47;98579.16;;;6.47;79.55
66762;BME280;53672;48.176;16.338;2023-12-14T08:42:49;98571.56;;;6.57;79.30
66762;BME280;53672;48.176;16.338;2023-12-14T08:47:49;98588.59;;;6.59;79.41
66762;BME280;53672;48.176;16.338;2023-12-14T08:52:50;98591.94;;;6.69;79.29
66762;BME280;53672;48.176;16.338;2023-12-14T08:57:52;98600.69;;;6.79;78.66
66762;BME280;53672;48.176;16.338;2023-12-14T09:02:52;98604.09;;;6.96;77.53
66762;BME280;53672;48.176;16.338;2023-12-14T09:07:53;98607.44;;;7.06;76.96
66762;BME280;53672;48.176;16.338;2023-12-14T09:12:55;98611.94;;;7.14;76.56
66762;BME280;53672;48.176;16.338;2023-12-14T09:17:55;98620.72;;;7.24;75.80
66762;BME280;53672;48.176;16.338;2023-12-14T09:22:55;98625.63;;;7.28;75.76
66762;BME280;53672;48.176;16.338;2023-12-14T09:27:57;98630.06;;;7.44;75.36
66762;BME280;53672;48.176;16.338;2023-12-14T09:32:58;98636.00;;;7.47;74.62
66762;BME280;53672;48.176;16.338;2023-12-14T09:37:58;98637.25;;;7.45;74.44
66762;BME280;53672;48.176;16.338;2023-12-14T09:43:00;98637.69;;;7.48;75.20
66762;BME280;53672;48.176;16.338;2023-12-14T09:48:01;98638.94;;;7.61;74.37
66762;BME280;53672;48.176;16.338;2023-12-14T09:53:01;98648.16;;;7.89;72.92
66762;BME280;53672;48.176;16.338;2023-12-14T09:58:03;98648.72;;;8.56;70.40
66762;BME280;53672;48.176;16.338;2023-12-14T10:03:18;98662.38;;;9.40;66.91
66762;BME280;53672;48.176;16.338;2023-12-14T10:08:18;98664.97;;;10.30;65.15
66762;BME280;53672;48.176;16.338;2023-12-14T10:13:23;98656.56;;;11.44;60.21
66762;BME280;53672;48.176;16.338;2023-12-14T10:18:35;98675.47;;;13.00;55.47
66762;BME280;53672;48.176;16.338;2023-12-14T10:23:36;98666.78;;;16.03;46.98
66762;BME280;53672;48.176;16.338;2023-12-14T10:28:39;98681.38;;;17.74;40.91
66762;BME280;53672;48.176;16.338;2023-12-14T10:33:39;98677.84;;;15.80;45.59
66762;BME280;53672;48.176;16.338;2023-12-14T10:38:42;98681.13;;;13.85;52.72
66762;BME280;53672;48.176;16.338;2023-12-14T10:43:47;98687.50;;;13.86;53.03
66762;BME280;53672;48.176;16.338;2023-12-14T10:48:49;98694.56;;;14.91;50.16
66762;BME280;53672;48.176;16.338;2023-12-14T10:53:50;98700.28;;;15.49;46.69
66762;BME280;53672;48.176;16.338;2023-12-14T10:58:53;98708.63;;;14.17;47.68
66762;BME280;53672;48.176;16.338;2023-12-14T11:03:54;98712.94;;;12.70;52.40
66762;BME280;53672;48.176;16.338;2023-12-14T11:08:56;98722.06;;;11.54;56.26
66762;BME280;53672;48.176;16.338;2023-12-14T11:13:58;98726.31;;;10.63;60.17
66762;BME280;53672;48.176;16.338;2023-12-14T11:19:24;98731.59;;;10.17;61.85
66762;BME280;53672;48.176;16.338;2023-12-14T11:24:25;98738.41;;;9.94;63.69
66762;BME280;53672;48.176;16.338;2023-12-14T11:29:26;98743.63;;;9.89;64.08
66762;BME280;53672;48.176;16.338;2023-12-14T11:34:27;98729.47;;;10.13;62.56
66762;BME280;53672;48.176;16.338;2023-12-14T11:39:30;98734.47;;;9.75;64.25
66762;BME280;53672;48.176;16.338;2023-12-14T11:44:32;98740.97;;;9.68;64.89
66762;BME280;53672;48.176;16.338;2023-12-14T11:49:32;98743.44;;;9.62;65.21
66762;BME280;53672;48.176;16.338;2023-12-14T11:54:32;98754.31;;;9.49;65.43
66762;BME280;53672;48.176;16.338;2023-12-14T11:59:35;98759.31;;;9.46;66.38
66762;BME280;53672;48.176;16.338;2023-12-14T12:04:35;98771.72;;;9.21;66.41
66762;BME280;53672;48.176;16.338;2023-12-14T12:09:37;98760.94;;;8.98;68.32
66762;BME280;53672;48.176;16.338;2023-12-14T12:14:40;98753.84;;;8.68;68.57
66762;BME280;53672;48.176;16.338;2023-12-14T12:19:40;98768.31;;;8.62;70.56
66762;BME280;53672;48.176;16.338;2023-12-14T12:24:41;98766.59;;;8.61;69.76
66762;BME280;53672;48.176;16.338;2023-12-14T12:29:42;98760.84;;;8.56;69.57
66762;BME280;53672;48.176;16.338;2023-12-14T12:34:43;98773.88;;;8.54;69.87
66762;BME280;53672;48.176;16.338;2023-12-14T12:39:43;98784.38;;;8.50;70.37
66762;BME280;53672;48.176;16.338;2023-12-14T12:44:45;98795.03;;;8.45;69.92
66762;BME280;53672;48.176;16.338;2023-12-14T12:49:45;98808.63;;;8.39;71.29
66762;BME280;53672;48.176;16.338;2023-12-14T12:54:46;98816.16;;;8.37;71.81
66762;BME280;53672;48.176;16.338;2023-12-14T12:59:48;98820.50;;;8.46;71.15
66762;BME280;53672;48.176;16.338;2023-12-14T13:04:48;98830.50;;;9.39;68.67
66762;BME280;53672;48.176;16.338;2023-12-14T13:09:48;98833.03;;;9.05;69.63
66762;BME280;53672;48.176;16.338;2023-12-14T13:14:50;98846.28;;;8.87;69.26
66762;BME280;53672;48.176;16.338;2023-12-14T13:19:51;98846.63;;;8.48;70.62
66762;BME280;53672;48.176;16.338;2023-12-14T13:24:51;98862.81;;;8.20;71.60
66762;BME280;53672;48.176;16.338;2023-12-14T13:29:53;98866.69;;;8.11;71.83
66762;BME280;53672;48.176;16.338;2023-12-14T13:34:53;98883.81;;;8.05;72.12
66762;BME280;53672;48.176;16.338;2023-12-14T13:39:54;98892.94;;;7.98;71.44
66762;BME280;53672;48.176;16.338;2023-12-14T13:44:56;98897.91;;;7.94;72.06
66762;BME280;53672;48.176;16.338;2023-12-14T13:49:56;98914.91;;;8.04;71.90
66762;BME280;53672;48.176;16.338;2023-12-14T13:54:57;98918.31;;;8.06;72.31
66762;BME280;53672;48.176;16.338;2023-12-14T13:59:58;98927.41;;;7.84;71.67
66762;BME280;53672;48.176;16.338;2023-12-14T14:04:59;98932.06;;;7.53;72.69
66762;BME280;53672;48.176;16.338;2023-12-14T14:09:59;98945.84;;;7.21;74.11
66762;BME280;53672;48.176;16.338;2023-12-14T14:15:01;98956.41;;;6.93;75.03
66762;BME280;53672;48.176;16.338;2023-12-14T14:20:02;98957.16;;;6.79;75.75
66762;BME280;53672;48.176;16.338;2023-12-14T14:25:03;98976.06;;;6.80;75.75
66762;BME280;53672;48.176;16.338;2023-12-14T14:30:06;98986.94;;;6.89;75.51
66762;BME280;53672;48.176;16.338;2023-12-14T14:35:07;98982.22;;;6.74;77.05
66762;BME280;53672;48.176;16.338;2023-12-14T14:40:08;98999.31;;;6.60;77.84
66762;BME280;53672;48.176;16.338;2023-12-14T14:45:11;99007.47;;;6.52;78.95
66762;BME280;53672;48.176;16.338;2023-12-14T14:50:11;99011.25;;;6.51;78.90
66762;BME280;53672;48.176;16.338;2023-12-14T14:55:12;99031.53;;;6.49;79.28
66762;BME280;53672;48.176;16.338;2023-12-14T15:00:15;99047.88;;;6.41;80.39
66762;BME280;53672;48.176;16.338;2023-12-14T15:05:16;99050.09;;;6.45;80.13
66762;BME280;53672;48.176;16.338;2023-12-14T15:10:16;99063.91;;;6.44;81.26
66762;BME280;53672;48.176;16.338;2023-12-14T15:15:18;99063.03;;;6.43;81.42
66762;BME280;53672;48.176;16.338;2023-12-14T15:20:18;99074.09;;;6.50;81.37
66762;BME280;53672;48.176;16.338;2023-12-14T15:25:19;99082.13;;;6.51;81.38
66762;BME280;53672;48.176;16.338;2023-12-14T15:30:21;99082.28;;;6.50;81.78
66762;BME280;53672;48.176;16.338;2023-12-14T15:35:21;99082.28;;;6.50;82.21
66762;BME280;53672;48.176;16.338;2023-12-14T15:40:21;99101.03;;;6.61;81.70
66762;BME280;53672;48.176;16.338;2023-12-14T15:45:23;99107.69;;;6.58;81.51
66762;BME280;53672;48.176;16.338;2023-12-14T15:50:24;99109.72;;;6.56;81.38
66762;BME280;53672;48.176;16.338;2023-12-14T15:55:24;99115.16;;;6.56;82.29
66762;BME280;53672;48.176;16.338;2023-12-14T16:00:26;99123.84;;;6.52;81.62
66762;BME280;53672;48.176;16.338;2023-12-14T16:05:26;99133.56;;;6.54;81.00
66762;BME280;53672;48.176;16.338;2023-12-14T16:10:27;99145.50;;;6.45;81.30
66762;BME280;53672;48.176;16.338;2023-12-14T16:15:28;99158.97;;;6.55;81.18
66762;BME280;53672;48.176;16.338;2023-12-14T16:20:29;99156.44;;;6.53;81.08
66762;BME280;53672;48.176;16.338;2023-12-14T16:25:29;99156.41;;;6.45;81.09
66762;BME280;53672;48.176;16.338;2023-12-14T16:30:31;99171.59;;;6.40;81.62
66762;BME280;53672;48.176;16.338;2023-12-14T16:35:31;99172.44;;;6.40;81.94
66762;BME280;53672;48.176;16.338;2023-12-14T16:40:32;99190.81;;;6.30;82.92
66762;BME280;53672;48.176;16.338;2023-12-14T16:45:33;99189.31;;;6.44;82.71
66762;BME280;53672;48.176;16.338;2023-12-14T16:50:34;99197.53;;;6.92;80.55
66762;BME280;53672;48.176;16.338;2023-12-14T16:55:35;99215.09;;;6.90;80.54
66762;BME280;53672;48.176;16.338;2023-12-14T17:00:37;99209.81;;;7.04;79.68
66762;BME280;53672;48.176;16.338;2023-12-14T17:05:37;99225.31;;;7.04;79.90
66762;BME280;53672;48.176;16.338;2023-12-14T17:10:38;99237.69;;;6.50;82.72
66762;BME280;53672;48.176;16.338;2023-12-14T17:15:39;99246.03;;;6.40;83.26
66762;BME280;53672;48.176;16.338;2023-12-14T17:20:40;99248.09;;;6.46;83.38
66762;BME280;53672;48.176;16.338;2023-12-14T17:25:40;99242.97;;;6.43;83.93
66762;BME280;53672;48.176;16.338;2023-12-14T17:30:42;99255.91;;;6.41;83.98
66762;BME280;53672;48.176;16.338;2023-12-14T17:35:42;99260.78;;;6.88;81.77
66762;BME280;53672;48.176;16.338;2023-12-14T17:40:43;99260.72;;;6.55;82.60
66762;BME280;53672;48.176;16.338;2023-12-14T17:45:45;99269.38;;;6.43;83.59
66762;BME280;53672;48.176;16.338;2023-12-14T17:50:45;99268.53;;;6.42;82.75
66762;BME280;53672;48.176;16.338;2023-12-14T17:55:45;99274.31;;;6.39;82.60
66762;BME280;53672;48.176;16.338;2023-12-14T18:00:47;99288.66;;;6.49;82.22
66762;BME280;53672;48.176;16.338;2023-12-14T18:05:48;99301.94;;;6.52;83.20
66762;BME280;53672;48.176;16.338;2023-12-14T18:10:48;99311.47;;;6.48;82.98
66762;BME280;53672;48.176;16.338;2023-12-14T18:15:50;99315.38;;;6.38;83.95
66762;BME280;53672;48.176;16.338;2023-12-14T18:20:51;99319.22;;;6.27;84.74
66762;BME280;53672;48.176;16.338;2023-12-14T18:25:51;99328.09;;;6.29;84.56
66762;BME280;53672;48.176;16.338;2023-12-14T18:30:54;99335.59;;;6.27;84.67
66762;BME280;53672;48.176;16.338;2023-12-14T18:35:54;99348.53;;;6.25;84.45
66762;BME280;53672;48.176;16.338;2023-12-14T18:40:55;99355.03;;;6.32;83.67
66762;BME280;53672;48.176;16.338;2023-12-14T18:45:57;99354.38;;;6.38;83.47
66762;BME280;53672;48.176;16.338;2023-12-14T18:50:58;99367.81;;;6.32;83.50
66762;BME280;53672;48.176;16.338;2023-12-14T18:55:59;99373.91;;;6.26;83.68
66762;BME280;53672;48.176;16.338;2023-12-14T19:01:02;99386.78;;;6.16;82.99
66762;BME280;53672;48.176;16.338;2023-12-14T19:06:06;99391.84;;;6.36;81.68
66762;BME280;53672;48.176;16.338;2023-12-14T19:11:14;99387.22;;;6.62;81.13
66762;BME280;53672;48.176;16.338;2023-12-14T19:16:24;99395.97;;;6.82;79.91
66762;BME280;53672;48.176;16.338;2023-12-14T19:21:26;99396.44;;;6.69;80.20
66762;BME280;53672;48.176;16.338;2023-12-14T19:26:27;99406.19;;;6.80;79.90
66762;BME280;53672;48.176;16.338;2023-12-14T19:31:29;99411.22;;;6.25;82.34
66762;BME280;53672;48.176;16.338;2023-12-14T19:36:30;99408.56;;;6.33;81.95
66762;BME280;53672;48.176;16.338;2023-12-14T19:41:31;99420.81;;;6.71;80.66
66762;BME280;53672;48.176;16.338;2023-12-14T19:46:36;99427.81;;;6.73;80.53
66762;BME280;53672;48.176;16.338;2023-12-14T19:51:38;99443.63;;;6.10;83.61
66762;BME280;53672;48.176;16.338;2023-12-14T19:56:43;99456.56;;;6.08;84.68
66762;BME280;53672;48.176;16.338;2023-12-14T20:01:46;99456.25;;;6.11;85.03
66762;BME280;53672;48.176;16.338;2023-12-14T20:06:48;99463.75;;;6.09;85.03
66762;BME280;53672;48.176;16.338;2023-12-14T20:11:49;99475.50;;;6.10;84.64
66762;BME280;53672;48.176;16.338;2023-12-14T20:16:52;99478.84;;;6.04;84.78
66762;BME280;53672;48.176;16.338;2023-12-14T20:21:53;99490.13;;;6.09;84.23
66762;BME280;53672;48.176;16.338;2023-12-14T20:26:55;99490.78;;;6.03;84.34
66762;BME280;53672;48.176;16.338;2023-12-14T20:31:59;99501.97;;;6.00;84.04
66762;BME280;53672;48.176;16.338;2023-12-14T20:37:00;99518.00;;;6.03;84.24
66762;BME280;53672;48.176;16.338;2023-12-14T20:42:00;99533.88;;;6.07;83.32
66762;BME280;53672;48.176;16.338;2023-12-14T20:47:02;99525.94;;;6.14;83.09
66762;BME280;53672;48.176;16.338;2023-12-14T20:52:03;99530.75;;;6.20;82.97
66762;BME280;53672;48.176;16.338;2023-12-14T20:57:04;99547.19;;;6.28;82.74
66762;BME280;53672;48.176;16.338;2023-12-14T21:02:06;99539.38;;;6.33;82.58
66762;BME280;53672;48.176;16.338;2023-12-14T21:07:07;99557.44;;;6.34;82.94
66762;BME280;53672;48.176;16.338;2023-12-14T21:12:07;99554.72;;;6.34;81.84
66762;BME280;53672;48.176;16.338;2023-12-14T21:17:09;99563.97;;;6.41;81.70
66762;BME280;53672;48.176;16.338;2023-12-14T21:22:09;99570.75;;;6.37;81.75
66762;BME280;53672;48.176;16.338;2023-12-14T21:27:10;99583.38;;;6.38;81.32
66762;BME280;53672;48.176;16.338;2023-12-14T21:32:12;99579.47;;;6.58;80.64
66762;BME280;53672;48.176;16.338;2023-12-14T21:37:13;99579.41;;;7.02;78.50
66762;BME280;53672;48.176;16.338;2023-12-14T21:42:13;99590.69;;;6.55;80.63
66762;BME280;53672;48.176;16.338;2023-12-14T21:47:15;99601.19;;;6.50;81.37
66762;BME280;53672;48.176;16.338;2023-12-14T21:52:15;99600.34;;;6.50;81.75
66762;BME280;53672;48.176;16.338;2023-12-14T21:57:16;99602.75;;;6.53;81.42
66762;BME280;53672;48.176;16.338;2023-12-14T22:02:18;99609.19;;;6.52;81.29
66762;BME280;53672;48.176;16.338;2023-12-14T22:07:18;99623.69;;;6.52;81.73
66762;BME280;53672;48.176;16.338;2023-12-14T22:12:19;99630.50;;;6.48;81.65
66762;BME280;53672;48.176;16.338;2023-12-14T22:17:21;99637.34;;;6.52;81.94
66762;BME280;53672;48.176;16.338;2023-12-14T22:22:21;99643.81;;;6.51;82.33
66762;BME280;53672;48.176;16.338;2023-12-14T22:27:22;99642.78;;;6.52;81.93
66762;BME280;53672;48.176;16.338;2023-12-14T22:32:23;99650.09;;;6.52;82.44
66762;BME280;53672;48.176;16.338;2023-12-14T22:37:24;99658.47;;;6.50;83.14
66762;BME280;53672;48.176;16.338;2023-12-14T22:42:24;99649.97;;;6.53;81.98
66762;BME280;53672;48.176;16.338;2023-12-14T22:47:26;99661.56;;;6.55;81.63
66762;BME280;53672;48.176;16.338;2023-12-14T22:52:27;99665.78;;;6.50;82.06
66762;BME280;53672;48.176;16.338;2023-12-14T22:57:27;99670.00;;;6.44;82.16
66762;BME280;53672;48.176;16.338;2023-12-14T23:02:29;99657.06;;;6.46;81.16
66762;BME280;53672;48.176;16.338;2023-12-14T23:07:29;99671.69;;;6.45;80.85
66762;BME280;53672;48.176;16.338;2023-12-14T23:12:30;99674.75;;;6.42;81.12
66762;BME280;53672;48.176;16.338;2023-12-14T23:17:32;99688.84;;;6.38;81.17
66762;BME280;53672;48.176;16.338;2023-12-14T23:22:32;99701.84;;;6.26;81.76
66762;BME280;53672;48.176;16.338;2023-12-14T23:27:33;99708.00;;;6.28;80.30
66762;BME280;53672;48.176;16.338;2023-12-14T23:32:35;99710.03;;;6.26;79.20
66762;BME280;53672;48.176;16.338;2023-12-14T23:37:35;99704.19;;;6.21;80.07
66762;BME280;53672;48.176;16.338;2023-12-14T23:42:35;99717.63;;;6.23;78.79
66762;BME280;53672;48.176;16.338;2023-12-14T23:47:37;99721.84;;;6.17;79.23
66762;BME280;53672;48.176;16.338;2023-12-14T23:52:38;99728.13;;;6.18;78.39
66762;BME280;53672;48.176;16.338;2023-12-14T23:57:38;99731.72;;;6.18;77.30
